createdAt,value
2023-01-04T00:00:29.288Z,98499.78
2023-01-04T00:03:34.069Z,98507.16
2023-01-04T00:06:35.799Z,98496.75
2023-01-04T00:09:37.278Z,98496.13
2023-01-04T00:12:38.773Z,98505.03
2023-01-04T00:15:40.443Z,98496.84
2023-01-04T00:18:42.611Z,98484.94
2023-01-04T00:21:44.256Z,98481.44
2023-01-04T00:24:45.801Z,98475.69
2023-01-04T00:27:47.333Z,98474.84
2023-01-04T00:30:48.981Z,98476.91
2023-01-04T00:33:53.787Z,98469.34
2023-01-04T00:36:55.263Z,98467.16
2023-01-04T00:39:56.807Z,98461.38
2023-01-04T00:42:58.339Z,98472.56
2023-01-04T00:46:01.344Z,98465.16
2023-01-04T00:49:04.090Z,98463.09
2023-01-04T00:52:06.680Z,98462.56
2023-01-04T00:55:08.667Z,98454.19
2023-01-04T00:58:10.648Z,98457.56
2023-01-04T01:01:12.351Z,98451.50
2023-01-04T01:04:16.853Z,98459.81
2023-01-04T01:07:18.560Z,98449.75
2023-01-04T01:10:20.205Z,98448.22
2023-01-04T01:13:23.144Z,98445.41
2023-01-04T01:16:53.022Z,98449.69
2023-01-04T01:19:48.314Z,98451.31
2023-01-04T01:22:49.946Z,98456.94
2023-01-04T01:25:51.555Z,98448.38
2023-01-04T01:28:53.312Z,98450.09
2023-01-04T01:31:54.882Z,98463.84
2023-01-04T01:34:56.494Z,98448.31
2023-01-04T01:37:58.006Z,98454.47
2023-01-04T01:40:59.715Z,98465.72
2023-01-04T01:44:26.850Z,98461.91
2023-01-04T01:47:39.147Z,98454.34
2023-01-04T01:50:50.491Z,98449.59
2023-01-04T01:53:58.598Z,98453.28
2023-01-04T01:57:04.382Z,98450.69
2023-01-04T02:00:10.310Z,98458.34
2023-01-04T02:03:37.612Z,98457.75
2023-01-04T02:06:46.473Z,98454.66
2023-01-04T02:09:49.545Z,98452.63
2023-01-04T02:12:52.641Z,98461.19
2023-01-04T02:16:18.396Z,98454.03
2023-01-04T02:20:00.997Z,98462.81
2023-01-04T02:23:23.902Z,98453.97
2023-01-04T02:26:40.405Z,98459.84
2023-01-04T02:30:00.664Z,98449.00
2023-01-04T02:33:28.549Z,98457.47
2023-01-04T02:36:40.747Z,98447.91
2023-01-04T02:39:58.908Z,98434.16
2023-01-04T02:43:27.728Z,98434.03
2023-01-04T02:46:33.283Z,98417.00
2023-01-04T02:49:53.238Z,98419.69
2023-01-04T02:52:54.722Z,98415.34
2023-01-04T02:56:02.228Z,98410.13
2023-01-04T02:59:28.254Z,98414.84
2023-01-04T03:03:14.067Z,98407.19
2023-01-04T03:06:33.167Z,98417.88
2023-01-04T03:09:38.733Z,98424.09
2023-01-04T03:12:46.429Z,98424.88
2023-01-04T03:15:58.274Z,98427.94
2023-01-04T03:19:09.442Z,98432.22
2023-01-04T03:22:34.378Z,98430.63
2023-01-04T03:26:00.646Z,98415.94
2023-01-04T03:29:40.491Z,98428.88
2023-01-04T03:33:15.185Z,98417.38
2023-01-04T03:36:28.162Z,98415.78
2023-01-04T03:39:57.691Z,98424.22
2023-01-04T03:43:37.453Z,98425.22
2023-01-04T03:47:06.434Z,98420.47
2023-01-04T03:50:22.447Z,98427.16
2023-01-04T03:53:25.978Z,98416.38
2023-01-04T03:56:29.878Z,98415.84
2023-01-04T03:59:39.329Z,98416.28
2023-01-04T04:02:41.440Z,98402.53
2023-01-04T04:06:04.254Z,98388.56
2023-01-04T04:09:05.816Z,98392.47
2023-01-04T04:12:07.482Z,98398.88
2023-01-04T04:15:09.574Z,98397.88
2023-01-04T04:18:11.220Z,98392.94
2023-01-04T04:21:12.883Z,98386.22
2023-01-04T04:24:20.026Z,98386.16
2023-01-04T04:27:21.548Z,98380.53
2023-01-04T04:30:23.070Z,98375.78
2023-01-04T04:33:24.564Z,98369.63
2023-01-04T04:36:26.081Z,98372.97
2023-01-04T04:39:27.567Z,98365.13
2023-01-04T04:42:29.273Z,98350.63
2023-01-04T04:45:30.887Z,98362.00
2023-01-04T04:48:32.503Z,98367.66
2023-01-04T04:51:34.131Z,98357.50
2023-01-04T04:54:35.908Z,98367.44
2023-01-04T04:57:37.446Z,98362.00
2023-01-04T05:00:41.481Z,98369.00
2023-01-04T05:03:43.071Z,98365.72
2023-01-04T05:06:45.735Z,98353.59
2023-01-04T05:09:47.232Z,98361.47
2023-01-04T05:13:00.733Z,98375.22
2023-01-04T05:16:04.039Z,98380.59
2023-01-04T05:19:05.567Z,98374.97
2023-01-04T05:22:07.072Z,98371.09
2023-01-04T05:25:09.986Z,98376.97
2023-01-04T05:28:11.675Z,98376.56
2023-01-04T05:31:14.628Z,98373.31
2023-01-04T05:34:22.017Z,98367.78
2023-01-04T05:37:23.965Z,98372.59
2023-01-04T05:40:26.225Z,98365.28
2023-01-04T05:43:27.772Z,98366.13
2023-01-04T05:46:29.374Z,98366.97
2023-01-04T05:49:30.870Z,98361.44
2023-01-04T05:52:32.400Z,98364.03
2023-01-04T05:55:34.366Z,98364.47
2023-01-04T05:58:35.981Z,98356.94
2023-01-04T06:01:37.652Z,98372.22
2023-01-04T06:04:39.317Z,98370.00
2023-01-04T06:07:41.289Z,98356.66
2023-01-04T06:10:42.884Z,98365.13
2023-01-04T06:13:44.502Z,98365.75
2023-01-04T06:16:46.173Z,98365.84
2023-01-04T06:19:47.893Z,98372.81
2023-01-04T06:22:49.418Z,98377.44
2023-01-04T06:25:50.992Z,98371.44
2023-01-04T06:28:52.508Z,98377.63
2023-01-04T06:31:54.915Z,98379.31
2023-01-04T06:34:56.473Z,98390.88
2023-01-04T06:37:58.083Z,98380.44
2023-01-04T06:41:00.253Z,98382.47
2023-01-04T06:44:02.761Z,98381.88
2023-01-04T06:47:04.381Z,98382.56
2023-01-04T06:50:06.183Z,98395.31
2023-01-04T06:53:07.770Z,98403.38
2023-01-04T06:56:09.303Z,98391.53
2023-01-04T06:59:10.825Z,98382.56
2023-01-04T07:02:14.952Z,98385.53
2023-01-04T07:05:16.881Z,98382.19
2023-01-04T07:08:18.470Z,98381.00
2023-01-04T07:11:19.965Z,98397.25
2023-01-04T07:14:21.612Z,98399.06
2023-01-04T07:17:29.620Z,98398.38
2023-01-04T07:20:31.447Z,98398.03
2023-01-04T07:23:33.019Z,98393.66
2023-01-04T07:26:35.149Z,98406.31
2023-01-04T07:29:36.964Z,98408.13
2023-01-04T07:32:38.569Z,98407.19
2023-01-04T07:35:40.122Z,98414.19
2023-01-04T07:38:43.564Z,98416.56
2023-01-04T07:41:46.326Z,98414.97
2023-01-04T07:44:49.939Z,98416.91
2023-01-04T07:47:51.487Z,98415.66
2023-01-04T07:50:53.066Z,98419.09
2023-01-04T07:53:54.917Z,98405.97
2023-01-04T07:56:56.508Z,98415.16
2023-01-04T07:59:58.084Z,98419.22
2023-01-04T08:02:59.806Z,98416.47
2023-01-04T08:06:06.304Z,98405.25
2023-01-04T08:09:08.644Z,98415.16
2023-01-04T08:12:10.197Z,98422.81
2023-01-04T08:15:11.812Z,98428.28
2023-01-04T08:18:13.441Z,98426.75
2023-01-04T08:21:15.067Z,98422.31
2023-01-04T08:24:19.087Z,98415.75
2023-01-04T08:27:20.638Z,98422.09
2023-01-04T08:30:22.109Z,98421.84
2023-01-04T08:33:24.200Z,98425.66
2023-01-04T08:36:28.227Z,98440.00
2023-01-04T08:39:33.392Z,98437.97
2023-01-04T08:42:34.985Z,98430.81
2023-01-04T08:45:36.677Z,98434.25
2023-01-04T08:48:38.995Z,98428.91
2023-01-04T08:51:41.385Z,98440.00
2023-01-04T08:55:51.329Z,98425.06
2023-01-04T08:58:52.958Z,98421.38
2023-01-04T09:01:58.514Z,98429.97
2023-01-04T09:05:04.846Z,98437.72
2023-01-04T09:08:06.787Z,98422.47
2023-01-04T09:11:17.068Z,98425.09
2023-01-04T09:14:18.610Z,98412.31
2023-01-04T09:17:20.181Z,98404.97
2023-01-04T09:20:21.768Z,98405.25
2023-01-04T09:23:23.571Z,98410.97
2023-01-04T09:26:25.161Z,98397.59
2023-01-04T09:29:27.496Z,98395.94
2023-01-04T09:32:29.767Z,98392.91
2023-01-04T09:35:32.248Z,98399.34
2023-01-04T09:38:35.680Z,98398.63
2023-01-04T09:41:45.547Z,98387.19
2023-01-04T09:45:22.424Z,98407.09
2023-01-04T09:48:26.027Z,98396.47
2023-01-04T09:51:34.552Z,98401.09
2023-01-04T09:54:51.422Z,98397.66
2023-01-04T09:57:58.722Z,98398.13
2023-01-04T10:01:16.887Z,98408.56
2023-01-04T10:04:27.219Z,98419.91
2023-01-04T10:07:32.477Z,98429.09
2023-01-04T10:10:45.646Z,98426.25
2023-01-04T10:14:11.868Z,98412.03
2023-01-04T10:21:44.114Z,98410.25
2023-01-04T10:24:57.849Z,98403.03
2023-01-04T10:28:02.601Z,98402.22
2023-01-04T10:31:38.621Z,98397.25
2023-01-04T10:34:49.847Z,98387.84
2023-01-04T10:37:57.614Z,98384.09
2023-01-04T10:45:55.090Z,98360.69
2023-01-04T10:49:33.189Z,98340.88
2023-01-04T10:53:11.987Z,98340.63
2023-01-04T10:56:40.076Z,98330.06
2023-01-04T10:59:53.560Z,98329.78
2023-01-04T11:03:08.251Z,98321.41
2023-01-04T11:06:22.440Z,98325.59
2023-01-04T11:09:30.181Z,98330.19
2023-01-04T11:12:31.975Z,98341.00
2023-01-04T11:15:34.812Z,98317.81
2023-01-04T11:18:38.435Z,98308.09
2023-01-04T11:21:46.817Z,98305.53
2023-01-04T11:28:44.510Z,98310.63
2023-01-04T11:31:57.000Z,98295.91
2023-01-04T11:34:58.703Z,98303.25
2023-01-04T11:38:11.166Z,98293.09
2023-01-04T11:41:16.572Z,98279.56
2023-01-04T11:44:19.182Z,98294.75
2023-01-04T11:47:26.643Z,98276.31
2023-01-04T11:50:41.798Z,98267.56
2023-01-04T11:53:43.381Z,98266.97
2023-01-04T11:57:02.075Z,98259.88
2023-01-04T12:00:14.328Z,98262.38
2023-01-04T12:03:26.005Z,98263.03
2023-01-04T12:06:55.157Z,98255.44
2023-01-04T12:09:59.415Z,98244.97
2023-01-04T12:13:01.901Z,98236.59
2023-01-04T12:16:23.045Z,98243.13
2023-01-04T12:19:25.235Z,98249.69
2023-01-04T12:22:40.678Z,98247.06
2023-01-04T12:25:46.592Z,98253.75
2023-01-04T12:28:50.909Z,98242.50
2023-01-04T12:32:01.802Z,98238.75
2023-01-04T12:35:03.576Z,98238.16
2023-01-04T12:38:05.157Z,98233.97
2023-01-04T12:41:06.775Z,98248.53
2023-01-04T12:44:36.108Z,98248.66
2023-01-04T12:47:57.893Z,98243.53
2023-01-04T12:51:37.330Z,98234.94
2023-01-04T12:55:01.773Z,98228.38
2023-01-04T12:58:40.766Z,98239.25
2023-01-04T13:02:14.314Z,98224.22
2023-01-04T13:05:54.856Z,98242.09
2023-01-04T13:08:41.943Z,98245.88
2023-01-04T13:12:03.240Z,98243.25
2023-01-04T13:15:19.445Z,98229.44
2023-01-04T13:18:34.099Z,98228.91
2023-01-04T13:21:41.339Z,98234.50
2023-01-04T13:24:43.923Z,98242.03
2023-01-04T13:28:02.883Z,98225.09
2023-01-04T13:31:04.808Z,98209.00
2023-01-04T13:34:15.605Z,98216.78
2023-01-04T13:37:29.889Z,98225.16
2023-01-04T13:40:37.386Z,98215.56
2023-01-04T13:43:56.568Z,98209.94
2023-01-04T13:46:58.227Z,98204.19
2023-01-04T13:50:00.051Z,98201.94
2023-01-04T13:53:07.390Z,98216.00
2023-01-04T13:56:24.226Z,98214.47
2023-01-04T13:59:25.982Z,98210.63
2023-01-04T14:02:27.696Z,98209.81
2023-01-04T14:05:29.351Z,98206.34
2023-01-04T14:08:39.733Z,98203.84
2023-01-04T14:12:06.689Z,98189.09
2023-01-04T14:15:21.370Z,98199.91
2023-01-04T14:18:28.832Z,98192.28
2023-01-04T14:21:36.286Z,98196.97
2023-01-04T14:28:30.532Z,98196.16
2023-01-04T14:31:35.582Z,98195.25
2023-01-04T14:34:37.171Z,98186.75
2023-01-04T14:37:38.745Z,98195.84
2023-01-04T14:40:41.474Z,98190.75
2023-01-04T14:43:54.366Z,98188.63
2023-01-04T14:46:58.332Z,98179.34
2023-01-04T14:49:59.956Z,98197.31
2023-01-04T14:53:01.921Z,98193.13
2023-01-04T14:56:03.863Z,98202.44
2023-01-04T14:59:05.528Z,98197.16
2023-01-04T15:02:10.329Z,98201.59
2023-01-04T15:05:11.969Z,98199.94
2023-01-04T15:08:13.630Z,98207.47
2023-01-04T15:11:15.912Z,98194.69
2023-01-04T15:14:18.651Z,98182.34
2023-01-04T15:17:20.216Z,98187.09
2023-01-04T15:20:22.216Z,98191.16
2023-01-04T15:23:23.726Z,98175.91
2023-01-04T15:26:25.340Z,98184.66
2023-01-04T15:29:26.936Z,98180.34
2023-01-04T15:32:28.561Z,98185.91
2023-01-04T15:35:30.138Z,98193.16
2023-01-04T15:38:32.584Z,98194.44
2023-01-04T15:41:52.453Z,98198.91
2023-01-04T15:44:53.943Z,98186.25
2023-01-04T15:48:02.936Z,98177.78
2023-01-04T15:51:07.831Z,98166.38
2023-01-04T15:54:09.577Z,98166.75
2023-01-04T15:57:11.122Z,98161.63
2023-01-04T16:00:13.367Z,98163.16
2023-01-04T16:03:14.968Z,98149.28
2023-01-04T16:06:17.440Z,98160.81
2023-01-04T16:09:19.052Z,98148.78
2023-01-04T16:12:39.335Z,98138.22
2023-01-04T16:15:41.828Z,98130.06
2023-01-04T16:18:48.341Z,98138.56
2023-01-04T16:21:49.960Z,98156.16
2023-01-04T16:28:13.100Z,98181.66
2023-01-04T16:31:14.720Z,98184.63
2023-01-04T16:34:16.445Z,98185.56
2023-01-04T16:37:18.848Z,98179.00
2023-01-04T16:40:21.042Z,98165.13
2023-01-04T16:43:22.540Z,98175.69
2023-01-04T16:46:34.715Z,98171.66
2023-01-04T16:49:37.696Z,98154.16
2023-01-04T16:52:39.784Z,98139.44
2023-01-04T16:55:41.283Z,98135.81
2023-01-04T16:58:48.067Z,98141.63
2023-01-04T17:01:57.305Z,98144.13
2023-01-04T17:05:00.848Z,98135.88
2023-01-04T17:08:02.415Z,98129.78
2023-01-04T17:14:31.254Z,98117.66
2023-01-04T17:17:32.768Z,98126.09
2023-01-04T17:20:34.484Z,98142.19
2023-01-04T17:23:39.626Z,98146.47
2023-01-04T17:26:41.685Z,98134.94
2023-01-04T17:29:43.385Z,98136.75
2023-01-04T17:32:44.932Z,98122.69
2023-01-04T17:35:46.601Z,98131.09
2023-01-04T17:38:49.323Z,98126.09
2023-01-04T17:41:51.001Z,98115.38
2023-01-04T17:44:52.713Z,98113.44
2023-01-04T17:47:54.549Z,98101.28
2023-01-04T17:50:57.434Z,98090.72
2023-01-04T17:54:04.248Z,98095.19
2023-01-04T17:57:05.842Z,98082.66
2023-01-04T18:00:08.104Z,98094.41
2023-01-04T18:03:09.664Z,98089.66
2023-01-04T18:06:25.493Z,98091.28
2023-01-04T18:09:27.540Z,98084.75
2023-01-04T18:12:31.627Z,98090.59
2023-01-04T18:15:34.068Z,98091.28
2023-01-04T18:18:41.063Z,98093.91
2023-01-04T18:21:45.543Z,98065.53
2023-01-04T18:24:47.339Z,98073.38
2023-01-04T18:27:49.052Z,98091.81
2023-01-04T18:30:50.610Z,98085.31
2023-01-04T18:33:56.934Z,98055.50
2023-01-04T18:36:58.472Z,98071.69
2023-01-04T18:40:00.005Z,98096.75
2023-01-04T18:43:01.522Z,98074.38
2023-01-04T18:46:15.030Z,98079.53
2023-01-04T18:49:19.001Z,98069.19
2023-01-04T18:52:20.847Z,98072.72
2023-01-04T18:55:25.173Z,98092.09
2023-01-04T18:58:28.898Z,98056.47
2023-01-04T19:01:31.754Z,98063.25
2023-01-04T19:04:34.949Z,98058.84
2023-01-04T19:07:41.233Z,98060.97
2023-01-04T19:10:43.024Z,98069.47
2023-01-04T19:13:44.632Z,98077.00
2023-01-04T19:16:46.267Z,98071.06
2023-01-04T19:19:47.830Z,98072.91
2023-01-04T19:22:49.396Z,98069.66
2023-01-04T19:25:51.023Z,98058.03
2023-01-04T19:28:52.664Z,98059.78
2023-01-04T19:31:54.275Z,98081.22
2023-01-04T19:34:56.000Z,98075.13
2023-01-04T19:37:58.303Z,98074.34
2023-01-04T19:41:00.882Z,98069.72
2023-01-04T19:44:03.968Z,98069.00
2023-01-04T19:47:05.594Z,98075.53
2023-01-04T19:50:07.556Z,98070.63
2023-01-04T19:53:09.215Z,98082.06
2023-01-04T19:56:12.341Z,98079.47
2023-01-04T19:59:14.235Z,98084.13
2023-01-04T20:02:15.848Z,98101.03
2023-01-04T20:05:17.701Z,98079.59
2023-01-04T20:08:19.845Z,98095.16
2023-01-04T20:11:21.454Z,98089.88
2023-01-04T20:14:28.491Z,98102.09
2023-01-04T20:17:33.394Z,98087.88
2023-01-04T20:20:41.673Z,98082.59
2023-01-04T20:23:43.736Z,98099.13
2023-01-04T20:26:46.457Z,98089.69
2023-01-04T20:29:48.073Z,98107.06
2023-01-04T20:32:49.897Z,98079.81
2023-01-04T20:35:52.399Z,98079.28
2023-01-04T20:38:54.873Z,98090.38
2023-01-04T20:42:14.749Z,98083.28
2023-01-04T20:45:16.278Z,98108.91
2023-01-04T20:48:17.800Z,98092.19
2023-01-04T20:51:22.726Z,98099.28
2023-01-04T20:54:24.297Z,98098.31
2023-01-04T20:57:26.175Z,98097.63
2023-01-04T21:00:27.793Z,98083.88
2023-01-04T21:03:29.705Z,98089.34
2023-01-04T21:06:32.917Z,98093.13
2023-01-04T21:09:34.416Z,98097.44
2023-01-04T21:12:37.635Z,98105.66
2023-01-04T21:15:40.026Z,98084.00
2023-01-04T21:18:43.183Z,98070.78
2023-01-04T21:21:44.637Z,98084.50
2023-01-04T21:24:46.130Z,98080.22
2023-01-04T21:27:47.795Z,98069.47
2023-01-04T21:30:50.017Z,98074.09
2023-01-04T21:33:52.512Z,98067.81
2023-01-04T21:36:54.069Z,98064.03
2023-01-04T21:39:55.626Z,98061.53
2023-01-04T21:42:57.570Z,98071.81
2023-01-04T21:46:04.958Z,98063.72
2023-01-04T21:49:06.722Z,98054.63
2023-01-04T21:52:08.298Z,98059.25
2023-01-04T21:55:09.949Z,98059.41
2023-01-04T21:58:11.546Z,98056.25
2023-01-04T22:01:19.744Z,98053.31
2023-01-04T22:04:21.444Z,98052.78
2023-01-04T22:07:23.016Z,98051.16
2023-01-04T22:10:24.490Z,98049.31
2023-01-04T22:13:26.288Z,98086.47
2023-01-04T22:16:29.407Z,98058.88
2023-01-04T22:19:31.059Z,98039.94
2023-01-04T22:22:32.726Z,98035.63
2023-01-04T22:25:34.945Z,98032.16
2023-01-04T22:28:37.239Z,98041.75
2023-01-04T22:31:39.133Z,98034.78
2023-01-04T22:34:40.675Z,98042.41
2023-01-04T22:37:48.461Z,98031.19
2023-01-04T22:40:54.125Z,98073.78
2023-01-04T22:43:57.760Z,98029.50
2023-01-04T22:46:59.362Z,98020.09
2023-01-04T22:50:00.857Z,98036.78
2023-01-04T22:53:02.368Z,98041.25
2023-01-04T22:56:21.487Z,98068.78
2023-01-04T22:59:25.233Z,98044.69
2023-01-04T23:02:26.883Z,98035.28
2023-01-04T23:05:29.246Z,98022.56
2023-01-04T23:08:30.712Z,98033.97
2023-01-04T23:11:34.655Z,98012.81
2023-01-04T23:14:36.176Z,98011.66
2023-01-04T23:17:37.777Z,98039.94
2023-01-04T23:20:39.528Z,97997.31
2023-01-04T23:23:41.984Z,97970.22
2023-01-04T23:26:44.429Z,97992.88
2023-01-04T23:29:46.400Z,98009.59
2023-01-04T23:32:47.954Z,97994.53
2023-01-04T23:35:49.466Z,97987.78
2023-01-04T23:38:56.742Z,97978.69
2023-01-04T23:41:58.268Z,97972.91
2023-01-04T23:44:59.829Z,97970.94
2023-01-04T23:48:01.351Z,97976.91
2023-01-04T23:51:03.104Z,97956.72
2023-01-04T23:54:05.600Z,97975.72
2023-01-04T23:57:07.097Z,97952.44
